Time;durP1;ratioP1;P1;durP2;ratioP2;P2;SDS_P1;SDS_P2;PMS_P1;PMS_P2;Temp;Humidity;BMP_temperature;BMP_pressure;BME280_temperature;BME280_humidity;BME280_pressure;Samples;Min_cycle;Max_cycle;Signal;HPM_P1;HPM_P2
2021/05/06 00:31:45;;;;;;;8.30;3.87;;;5.50;99.90;;;;;;5041688;28;20193;-79
2021/05/06 00:34:03;;;;;;;9.90;3.90;;;5.50;99.90;;;;;;5045407;28;20178;-78
2021/05/06 00:36:29;;;;;;;8.03;4.00;;;5.60;99.90;;;;;;5043707;28;20175;-78
2021/05/06 00:38:58;;;;;;;10.53;4.53;;;5.60;99.90;;;;;;5024612;28;20467;-79
2021/05/06 01:02:57;;;;;;;8.97;5.17;;;5.80;99.90;;;;;;5045432;28;20211;-79
2021/05/06 01:08:07;;;;;;;9.47;5.60;;;5.80;99.90;;;;;;5043909;28;20208;-79
2021/05/06 01:10:59;;;;;;;9.17;5.03;;;5.80;99.90;;;;;;5030573;28;20202;-79
2021/05/06 01:13:31;;;;;;;9.47;4.70;;;5.80;99.90;;;;;;5044042;28;20209;-77
2021/05/06 01:15:57;;;;;;;10.73;5.10;;;5.80;99.90;;;;;;5040491;28;20177;-78
2021/05/06 01:18:23;;;;;;;9.40;5.37;;;5.80;99.90;;;;;;5039963;28;20548;-78
2021/05/06 01:20:58;;;;;;;13.03;5.20;;;5.80;99.90;;;;;;5054843;28;20676;-79
2021/05/06 01:23:26;;;;;;;8.20;5.83;;;5.80;99.90;;;;;;5042027;28;20178;-78
2021/05/06 01:26:04;;;;;;;11.57;5.93;;;5.70;99.90;;;;;;5041095;28;20228;-78
2021/05/06 01:28:34;;;;;;;8.73;5.60;;;5.70;99.90;;;;;;5029279;28;20338;-78
2021/05/06 01:31:07;;;;;;;8.87;5.33;;;5.70;99.90;;;;;;5042357;28;20208;-79
2021/05/06 01:33:49;;;;;;;7.87;5.70;;;5.60;99.90;;;;;;5027254;28;20187;-79
2021/05/06 01:36:19;;;;;;;6.83;5.53;;;5.50;99.90;;;;;;5045079;28;20188;-79
2021/05/06 01:41:48;;;;;;;8.00;5.93;;;5.50;99.90;;;;;;5016144;28;20265;-77
2021/05/06 01:44:46;;;;;;;9.53;7.07;;;5.50;99.90;;;;;;5022906;28;20177;-79
2021/05/06 01:58:00;;;;;;;12.27;7.80;;;5.60;99.90;;;;;;5020783;28;20257;-78
2021/05/06 02:00:30;;;;;;;9.27;7.50;;;5.60;99.90;;;;;;5034675;28;20221;-78
2021/05/06 02:02:56;;;;;;;13.33;8.80;;;5.60;99.90;;;;;;5018941;28;20192;-78
2021/05/06 02:05:22;;;;;;;13.93;9.27;;;5.60;99.90;;;;;;5035528;28;20182;-78
2021/05/06 02:07:48;;;;;;;14.10;9.07;;;5.50;99.90;;;;;;5016758;28;20633;-76
2021/05/06 02:10:16;;;;;;;12.87;9.97;;;5.40;99.90;;;;;;5018779;28;20213;-75
2021/05/06 02:12:42;;;;;;;12.67;10.20;;;5.30;99.90;;;;;;5035228;28;20179;-77
2021/05/06 02:15:45;;;;;;;13.80;10.37;;;5.30;99.90;;;;;;5044094;28;20303;-77
2021/05/06 02:18:02;;;;;;;17.67;11.33;;;5.20;99.90;;;;;;5025166;28;20241;-78
2021/05/06 02:20:29;;;;;;;14.10;11.20;;;5.00;99.90;;;;;;5025827;28;20198;-75
2021/05/06 02:22:55;;;;;;;15.00;11.80;;;5.00;99.90;;;;;;5025849;28;20287;-75
2021/05/06 02:25:21;;;;;;;17.23;11.63;;;5.00;99.90;;;;;;5024787;28;20548;-75
2021/05/06 02:27:47;;;;;;;17.70;12.03;;;5.00;99.90;;;;;;5041339;28;20193;-78
2021/05/06 02:30:16;;;;;;;15.83;11.93;;;4.90;99.90;;;;;;5048430;28;20288;-77
2021/05/06 02:32:41;;;;;;;14.10;12.33;;;4.90;99.90;;;;;;5036846;28;20185;-78
2021/05/06 02:35:07;;;;;;;17.67;13.03;;;4.90;99.90;;;;;;5053294;28;20200;-78
2021/05/06 02:37:33;;;;;;;16.33;11.97;;;4.90;99.90;;;;;;5052708;28;20713;-77
2021/05/06 02:39:59;;;;;;;18.23;12.50;;;5.00;99.90;;;;;;5051508;28;20202;-77
2021/05/06 02:42:24;;;;;;;18.10;12.70;;;4.90;99.90;;;;;;5035272;28;20188;-77
2021/05/06 02:44:50;;;;;;;16.00;12.17;;;4.80;99.90;;;;;;5034918;28;20190;-77
2021/05/06 02:47:16;;;;;;;16.60;11.63;;;4.90;99.90;;;;;;5051972;28;20243;-77
2021/05/06 02:49:45;;;;;;;14.60;11.23;;;4.80;99.90;;;;;;5052153;28;20540;-77
2021/05/06 02:52:16;;;;;;;12.73;10.40;;;4.80;99.90;;;;;;5035421;28;20644;-77
2021/05/06 02:54:46;;;;;;;13.37;9.70;;;4.80;99.90;;;;;;5051912;28;20182;-77
2021/05/06 02:57:20;;;;;;;11.27;8.80;;;4.80;99.90;;;;;;5035728;28;20192;-77
2021/05/06 03:05:08;;;;;;;13.67;10.20;;;4.40;99.90;;;;;;5052619;28;20288;-78
2021/05/06 03:07:35;;;;;;;15.23;9.90;;;4.50;99.90;;;;;;5035092;28;20351;-77
2021/05/06 03:22:59;;;;;;;14.53;10.57;;;4.40;99.90;;;;;;5052119;28;20668;-77
2021/05/06 03:25:25;;;;;;;14.20;10.83;;;4.30;99.90;;;;;;5018888;28;20182;-78
2021/05/06 03:28:08;;;;;;;13.53;9.60;;;4.30;99.90;;;;;;5053056;28;20623;-78
2021/05/06 04:16:30;;;;;;;13.77;9.97;;;4.30;99.90;;;;;;5056448;28;20667;-77
2021/05/06 04:19:03;;;;;;;12.13;9.60;;;4.30;99.90;;;;;;5054526;28;20189;-76
2021/05/06 04:21:40;;;;;;;11.77;9.33;;;4.30;99.90;;;;;;5054600;28;20201;-76
2021/05/06 04:27:05;;;;;;;12.20;10.10;;;4.20;99.90;;;;;;5054583;28;20217;-75
2021/05/06 04:37:47;;;;;;;12.33;9.73;;;4.30;99.90;;;;;;5054139;28;20177;-76
2021/05/06 04:40:40;;;;;;;12.73;10.63;;;4.30;99.90;;;;;;5054210;28;20219;-75
2021/05/06 05:06:53;;;;;;;11.23;9.50;;;4.00;99.90;;;;;;5053614;28;20702;-75
2021/05/06 05:25:33;;;;;;;11.07;9.50;;;4.10;99.90;;;;;;5053102;28;20195;-75
2021/05/06 05:27:59;;;;;;;10.67;9.40;;;4.20;99.90;;;;;;5037965;28;20170;-75
2021/05/06 05:30:27;;;;;;;11.10;8.80;;;4.30;99.90;;;;;;5052705;28;20243;-75
2021/05/06 05:32:53;;;;;;;10.27;8.93;;;4.40;99.90;;;;;;5052847;28;20177;-75
2021/05/06 05:38:03;;;;;;;9.93;8.93;;;4.30;99.90;;;;;;5052961;28;20226;-75
2021/05/06 05:41:30;;;;;;;9.60;8.03;;;4.30;99.90;;;;;;5052920;28;20185;-76
2021/05/06 05:43:29;;;;;;;10.53;8.90;;;4.30;99.90;;;;;;5045491;28;20189;-76
2021/05/06 05:54:31;;;;;;;9.73;8.73;;;4.40;99.90;;;;;;5052780;28;20173;-76
2021/05/06 05:56:43;;;;;;;10.53;9.10;;;4.70;99.90;;;;;;5038261;28;20268;-76
2021/05/06 05:59:09;;;;;;;9.47;8.47;;;4.80;99.90;;;;;;5034673;28;20185;-76
2021/05/06 06:01:34;;;;;;;10.80;8.27;;;4.80;99.90;;;;;;5034769;28;20222;-76
2021/05/06 06:04:00;;;;;;;10.83;9.73;;;4.90;99.90;;;;;;5034557;28;20649;-76
2021/05/06 06:06:26;;;;;;;9.83;8.53;;;4.80;99.90;;;;;;5034557;28;20205;-76
2021/05/06 06:08:52;;;;;;;10.20;8.53;;;4.90;99.90;;;;;;5034542;28;20342;-77
2021/05/06 06:11:17;;;;;;;9.80;8.80;;;5.00;99.90;;;;;;5051056;28;20334;-77
2021/05/06 06:13:45;;;;;;;10.50;9.40;;;5.10;99.90;;;;;;5035022;28;20673;-76
2021/05/06 06:16:18;;;;;;;11.70;9.30;;;5.10;99.90;;;;;;5052040;28;20172;-76
2021/05/06 06:18:49;;;;;;;11.47;9.57;;;5.10;99.90;;;;;;5036348;28;20201;-77
2021/05/06 06:21:24;;;;;;;11.83;10.17;;;5.20;99.90;;;;;;5052057;28;20190;-76
2021/05/06 06:23:51;;;;;;;12.83;9.77;;;5.40;99.90;;;;;;5054454;28;20181;-76
2021/05/06 06:26:16;;;;;;;11.07;9.73;;;5.60;99.90;;;;;;5046961;28;20201;-76
2021/05/06 06:28:44;;;;;;;10.47;9.33;;;5.80;99.90;;;;;;5050936;28;20525;-76
2021/05/06 06:33:44;;;;;;;11.00;8.97;;;5.90;99.90;;;;;;5038228;28;20169;-76
2021/05/06 06:36:10;;;;;;;11.17;8.97;;;5.80;99.90;;;;;;5036792;28;20178;-76
2021/05/06 06:38:36;;;;;;;10.53;9.43;;;5.80;99.90;;;;;;5035164;28;20187;-76
2021/05/06 06:41:03;;;;;;;10.63;9.53;;;6.00;99.90;;;;;;5014651;28;20348;-76
2021/05/06 06:43:30;;;;;;;10.40;9.27;;;6.00;99.90;;;;;;5019807;28;20281;-76
2021/05/06 06:46:00;;;;;;;12.63;10.47;;;6.20;99.90;;;;;;5031394;28;20195;-76
2021/05/06 06:48:26;;;;;;;11.27;9.97;;;6.30;99.90;;;;;;5015697;28;20174;-76
2021/05/06 06:50:51;;;;;;;11.30;10.10;;;6.60;99.90;;;;;;4998419;28;20197;-76
2021/05/06 06:53:17;;;;;;;12.80;9.90;;;7.00;99.90;;;;;;5014645;28;20261;-74
2021/05/06 06:55:43;;;;;;;12.37;10.47;;;7.30;99.90;;;;;;5014890;28;20180;-74
2021/05/06 06:58:09;;;;;;;10.37;9.37;;;7.70;99.90;;;;;;5031354;28;20245;-74
2021/05/06 07:00:35;;;;;;;11.60;9.30;;;8.00;99.90;;;;;;4998142;28;20260;-74
2021/05/06 07:03:01;;;;;;;9.83;8.93;;;8.30;99.90;;;;;;5014780;28;20177;-74
2021/05/06 07:05:26;;;;;;;9.47;8.10;;;8.40;99.90;;;;;;5014868;28;20520;-73
2021/05/06 07:07:52;;;;;;;9.60;8.70;;;8.60;99.90;;;;;;5031091;28;20198;-75
2021/05/06 07:10:17;;;;;;;8.40;7.60;;;8.90;99.90;;;;;;5014710;28;20198;-75
2021/05/06 07:12:43;;;;;;;8.63;7.83;;;9.00;99.90;;;;;;4998454;28;20559;-74
2021/05/06 07:15:09;;;;;;;9.83;8.10;;;9.00;99.90;;;;;;5031042;28;20333;-75
2021/05/06 07:17:34;;;;;;;8.60;7.77;;;8.80;99.90;;;;;;5014989;28;20232;-75
2021/05/06 07:20:00;;;;;;;8.53;7.73;;;8.70;99.90;;;;;;5014616;28;20210;-78
2021/05/06 07:22:26;;;;;;;9.33;8.37;;;8.80;99.90;;;;;;4998130;28;20183;-75
2021/05/06 07:24:51;;;;;;;9.33;8.30;;;9.30;99.90;;;;;;5014306;28;20186;-74
2021/05/06 07:27:17;;;;;;;9.43;8.53;;;9.20;99.90;;;;;;5030980;28;20208;-75
2021/05/06 07:29:43;;;;;;;9.83;8.83;;;9.20;99.90;;;;;;4997898;28;20253;-74
2021/05/06 07:32:09;;;;;;;9.90;8.60;;;9.10;99.90;;;;;;5014234;28;20176;-74
2021/05/06 07:34:35;;;;;;;9.43;8.50;;;9.20;99.90;;;;;;5014573;28;20175;-74
2021/05/06 07:37:01;;;;;;;9.80;8.43;;;9.20;99.90;;;;;;5014872;28;20274;-74
2021/05/06 07:39:26;;;;;;;10.17;9.17;;;9.00;99.90;;;;;;5030794;28;20535;-74
2021/05/06 07:41:52;;;;;;;10.90;9.80;;;8.80;99.90;;;;;;5030590;28;20183;-75
2021/05/06 07:44:18;;;;;;;10.73;9.23;;;8.60;99.90;;;;;;5015506;28;20178;-74
2021/05/06 07:46:43;;;;;;;10.33;9.33;;;8.70;99.90;;;;;;5002039;28;20218;-74
2021/05/06 07:49:09;;;;;;;11.63;10.43;;;8.70;99.90;;;;;;5018507;28;20246;-75
2021/05/06 07:51:34;;;;;;;8.63;7.73;;;8.80;99.90;;;;;;5034776;28;20605;-76
2021/05/06 07:54:07;;;;;;;9.20;8.03;;;9.10;99.90;;;;;;5001738;28;20180;-73
2021/05/06 07:56:33;;;;;;;9.00;8.10;;;9.00;99.90;;;;;;5034265;28;20187;-76
2021/05/06 07:58:59;;;;;;;8.17;7.37;;;9.10;99.90;;;;;;5001826;28;20624;-75
2021/05/06 08:01:25;;;;;;;8.50;7.27;;;9.20;99.90;;;;;;5021034;28;20268;-75
2021/05/06 08:03:52;;;;;;;7.57;6.83;;;9.40;99.90;;;;;;5003155;28;20187;-75
2021/05/06 08:06:20;;;;;;;8.03;7.23;;;9.50;99.90;;;;;;5036643;28;20677;-75
2021/05/06 08:08:46;;;;;;;7.50;6.80;;;9.60;99.90;;;;;;5035910;28;20215;-75
2021/05/06 08:11:12;;;;;;;11.73;7.63;;;9.70;99.90;;;;;;5053747;28;20707;-75
2021/05/06 08:13:38;;;;;;;8.47;7.43;;;9.30;99.90;;;;;;5019199;28;20182;-75
2021/05/06 08:16:04;;;;;;;7.80;7.10;;;9.30;99.90;;;;;;5052618;28;20418;-76
2021/05/06 08:18:31;;;;;;;9.17;7.87;;;9.20;99.90;;;;;;5035688;28;20282;-75
2021/05/06 08:20:56;;;;;;;8.13;7.33;;;9.20;99.90;;;;;;5035505;28;20752;-75
2021/05/06 08:23:22;;;;;;;9.37;8.43;;;9.20;99.90;;;;;;5036736;28;20186;-75
2021/05/06 08:25:49;;;;;;;11.47;9.10;;;9.10;99.90;;;;;;5053821;28;20210;-75
2021/05/06 08:28:15;;;;;;;9.00;8.10;;;9.10;99.90;;;;;;5037571;28;20593;-75
2021/05/06 08:30:43;;;;;;;9.80;8.80;;;9.20;99.90;;;;;;5020756;28;20202;-76
2021/05/06 08:33:09;;;;;;;10.40;9.30;;;9.30;99.90;;;;;;5020880;28;20228;-75
2021/05/06 08:35:34;;;;;;;9.80;8.80;;;9.20;99.90;;;;;;5021049;28;20171;-75
2021/05/06 08:38:00;;;;;;;10.87;9.33;;;9.50;99.90;;;;;;5037091;28;20646;-75
2021/05/06 08:40:25;;;;;;;9.63;8.63;;;10.00;99.90;;;;;;5037368;28;20193;-75
2021/05/06 08:42:54;;;;;;;9.40;8.37;;;10.60;99.90;;;;;;5020427;28;20224;-75
2021/05/06 08:45:22;;;;;;;9.70;8.57;;;11.00;99.90;;;;;;5021671;28;20648;-75
2021/05/06 08:47:48;;;;;;;10.23;8.37;;;11.40;99.90;;;;;;5053561;28;20613;-75
2021/05/06 08:50:18;;;;;;;8.20;7.00;;;11.80;99.90;;;;;;5053686;28;20227;-75
2021/05/06 08:52:45;;;;;;;7.47;6.67;;;12.20;99.90;;;;;;5020287;28;20174;-75
2021/05/06 08:55:10;;;;;;;7.90;7.20;;;12.30;99.90;;;;;;5020343;28;20182;-75
2021/05/06 08:57:37;;;;;;;7.83;6.83;;;12.10;99.90;;;;;;5053572;28;20675;-78
2021/05/06 09:00:03;;;;;;;8.17;7.17;;;12.00;99.90;;;;;;5036942;28;20224;-78
2021/05/06 09:02:29;;;;;;;7.47;6.77;;;12.00;99.90;;;;;;5036633;28;20176;-77
2021/05/06 09:04:55;;;;;;;8.70;7.60;;;11.60;99.90;;;;;;5020180;28;20178;-78
2021/05/06 09:07:21;;;;;;;8.30;7.50;;;11.20;99.90;;;;;;5053093;28;20568;-76
2021/05/06 09:09:50;;;;;;;8.87;7.97;;;10.50;99.90;;;;;;5036616;28;20659;-75
2021/05/06 09:12:17;;;;;;;7.80;6.57;;;10.20;99.90;;;;;;5020042;28;20269;-75
2021/05/06 09:14:43;;;;;;;7.23;6.53;;;9.90;99.90;;;;;;5020275;28;20178;-75
2021/05/06 09:17:34;;;;;;;8.77;7.57;;;9.60;99.90;;;;;;5052466;28;20538;-75
2021/05/06 09:20:24;;;;;;;8.80;7.40;;;9.50;99.90;;;;;;5031517;28;20678;-75
2021/05/06 09:22:57;;;;;;;9.50;7.57;;;9.50;99.90;;;;;;5019774;28;20164;-75
2021/05/06 09:25:36;;;;;;;8.40;7.50;;;9.50;99.90;;;;;;5071048;28;20181;-76
2021/05/06 09:28:15;;;;;;;8.70;7.80;;;9.80;99.90;;;;;;5073456;28;20189;-74
2021/05/06 09:30:54;;;;;;;8.60;7.70;;;10.20;99.90;;;;;;5073149;28;20201;-75
2021/05/06 09:33:41;;;;;;;8.27;7.40;;;10.60;99.90;;;;;;5055979;28;20260;-75
2021/05/06 09:36:14;;;;;;;7.63;6.87;;;11.10;99.90;;;;;;5073791;28;20221;-73
2021/05/06 09:38:53;;;;;;;8.17;6.87;;;11.90;99.90;;;;;;5072426;28;20172;-74
2021/05/06 09:41:23;;;;;;;7.03;6.37;;;12.80;99.90;;;;;;5072646;28;20222;-73
2021/05/06 09:43:48;;;;;;;8.10;6.37;;;13.40;99.90;;;;;;5072455;28;20183;-74
2021/05/06 09:46:30;;;;;;;8.27;6.47;;;13.50;99.90;;;;;;5072423;28;20684;-73
2021/05/06 09:48:57;;;;;;;7.17;6.47;;;13.80;99.90;;;;;;5071976;28;20247;-76
2021/05/06 09:51:34;;;;;;;7.63;5.90;;;14.10;99.90;;;;;;5055552;28;20201;-77
2021/05/06 09:53:59;;;;;;;6.67;5.97;;;14.00;99.90;;;;;;5072107;28;20166;-77
2021/05/06 09:56:25;;;;;;;6.83;6.13;;;13.50;99.90;;;;;;5051655;28;20209;-77
2021/05/06 09:58:55;;;;;;;9.20;6.23;;;13.00;99.90;;;;;;5035168;28;20181;-77
2021/05/06 10:01:22;;;;;;;6.80;6.13;;;12.90;99.90;;;;;;5059518;23;20231;-75
2021/05/06 10:03:48;;;;;;;6.93;6.00;;;12.40;99.90;;;;;;5031831;28;20224;-75
2021/05/06 10:06:19;;;;;;;7.33;6.07;;;12.00;99.90;;;;;;5031385;28;20737;-74
2021/05/06 10:08:45;;;;;;;7.57;6.20;;;11.70;99.90;;;;;;5015496;28;20257;-73
2021/05/06 10:11:11;;;;;;;6.83;6.10;;;11.50;99.90;;;;;;5031845;28;20224;-73
2021/05/06 10:13:44;;;;;;;6.97;5.80;;;11.40;99.90;;;;;;5031386;28;20174;-74
2021/05/06 10:16:10;;;;;;;8.00;7.10;;;11.50;99.90;;;;;;5031910;28;20276;-74
2021/05/06 10:18:41;;;;;;;9.70;6.50;;;11.50;99.90;;;;;;5031836;28;20170;-74
2021/05/06 10:21:08;;;;;;;8.03;6.83;;;11.50;99.90;;;;;;5015818;28;20210;-73
2021/05/06 10:23:33;;;;;;;7.43;6.30;;;11.30;99.90;;;;;;5031309;28;20209;-73
2021/05/06 10:25:59;;;;;;;6.13;5.37;;;11.30;99.90;;;;;;5014155;28;20207;-73
2021/05/06 10:28:25;;;;;;;6.97;5.43;;;11.30;99.90;;;;;;5030859;28;20183;-73
2021/05/06 10:30:50;;;;;;;5.50;4.90;;;11.40;99.90;;;;;;5031215;28;20194;-73
2021/05/06 10:33:23;;;;;;;6.13;5.47;;;11.40;99.90;;;;;;5014444;28;20634;-73
2021/05/06 10:35:49;;;;;;;6.50;5.73;;;11.60;99.90;;;;;;5031293;28;20189;-73
2021/05/06 10:38:14;;;;;;;6.53;5.80;;;11.50;99.90;;;;;;4998111;28;20183;-73
2021/05/06 10:40:41;;;;;;;6.60;5.33;;;11.20;99.90;;;;;;5030606;28;20196;-73
2021/05/06 10:43:28;;;;;;;6.47;5.73;;;10.90;99.90;;;;;;5031819;28;20199;-73
2021/05/06 10:46:13;;;;;;;6.57;5.53;;;10.70;99.90;;;;;;5029052;28;20221;-72
2021/05/06 10:49:02;;;;;;;6.10;5.50;;;10.80;99.90;;;;;;5029728;28;20206;-73
2021/05/06 10:51:44;;;;;;;8.97;6.83;;;11.00;99.90;;;;;;5004291;28;20587;-72
2021/05/06 10:54:32;;;;;;;9.00;7.63;;;10.90;99.90;;;;;;5030573;28;20193;-73
2021/05/06 10:57:09;;;;;;;7.87;7.07;;;11.10;99.90;;;;;;5012697;28;20694;-72
2021/05/06 10:59:39;;;;;;;7.77;6.80;;;11.00;99.90;;;;;;5012355;28;20200;-72
2021/05/06 11:02:06;;;;;;;7.43;6.27;;;11.00;99.90;;;;;;5011254;28;20262;-72
2021/05/06 11:04:38;;;;;;;7.90;6.67;;;10.90;99.90;;;;;;5017454;28;20200;-73
2021/05/06 11:07:23;;;;;;;7.47;6.53;;;11.10;99.90;;;;;;5033582;28;20213;-72
2021/05/06 11:09:50;;;;;;;6.93;6.07;;;11.60;99.90;;;;;;5044275;28;20215;-74
2021/05/06 11:12:20;;;;;;;6.63;5.30;;;12.20;99.90;;;;;;5041712;28;20699;-73
2021/05/06 11:17:32;;;;;;;6.30;5.30;;;12.50;99.90;;;;;;5020772;28;20186;-74
2021/05/06 11:20:02;;;;;;;7.90;5.90;;;12.70;99.90;;;;;;5041361;28;20193;-73
2021/05/06 11:22:43;;;;;;;6.40;5.73;;;12.60;99.90;;;;;;5032419;28;20188;-72
2021/05/06 11:25:31;;;;;;;6.63;6.00;;;12.50;99.90;;;;;;5029257;28;20174;-72
2021/05/06 11:28:00;;;;;;;7.80;6.10;;;12.50;99.90;;;;;;5020892;28;20209;-72
2021/05/06 11:30:38;;;;;;;7.47;6.17;;;12.90;99.90;;;;;;5027477;28;20202;-72
2021/05/06 11:33:27;;;;;;;7.20;5.90;;;13.00;99.90;;;;;;5030402;28;20179;-72
2021/05/06 11:36:18;;;;;;;7.23;6.53;;;13.00;99.90;;;;;;5030152;28;20269;-72
2021/05/06 11:38:52;;;;;;;7.07;6.37;;;12.80;99.90;;;;;;5021574;28;20181;-74
2021/05/06 11:41:19;;;;;;;7.77;6.97;;;12.90;99.90;;;;;;5030246;28;20187;-72
2021/05/06 11:43:47;;;;;;;8.87;6.57;;;13.30;99.90;;;;;;5029574;28;20182;-72
2021/05/06 11:46:16;;;;;;;6.80;5.83;;;13.50;99.90;;;;;;5013854;28;20264;-72
2021/05/06 11:48:46;;;;;;;6.37;5.63;;;13.30;99.90;;;;;;5040183;28;20554;-72
2021/05/06 11:51:29;;;;;;;6.63;4.93;;;13.40;99.90;;;;;;5050492;28;20193;-72
2021/05/06 11:54:09;;;;;;;6.67;5.07;;;13.60;99.90;;;;;;5033531;28;20173;-72
2021/05/06 11:56:43;;;;;;;5.27;4.50;;;13.50;99.90;;;;;;5030736;28;20309;-72
2021/05/06 11:59:15;;;;;;;5.07;4.10;;;13.60;99.90;;;;;;5029565;28;20170;-72
2021/05/06 12:01:41;;;;;;;4.83;4.33;;;13.70;99.90;;;;;;5029754;28;20221;-73
2021/05/06 12:04:06;;;;;;;5.67;4.60;;;13.50;99.90;;;;;;5029371;28;20183;-73
2021/05/06 12:06:35;;;;;;;5.13;4.53;;;13.60;99.90;;;;;;5029248;28;20210;-73
2021/05/06 12:09:02;;;;;;;6.40;5.80;;;13.70;99.90;;;;;;5028836;28;20190;-72
2021/05/06 12:11:37;;;;;;;5.77;5.17;;;13.90;99.90;;;;;;5030133;28;20195;-73
2021/05/06 12:14:04;;;;;;;6.37;5.60;;;14.00;99.90;;;;;;5031902;28;20175;-71
2021/05/06 12:16:29;;;;;;;5.90;5.40;;;14.10;99.90;;;;;;5029645;28;20583;-71
2021/05/06 12:19:05;;;;;;;6.93;5.83;;;14.40;99.90;;;;;;5031131;28;20183;-71
2021/05/06 12:21:31;;;;;;;6.40;5.80;;;14.70;99.90;;;;;;5025665;28;20205;-71
2021/05/06 12:23:58;;;;;;;5.70;5.00;;;14.70;99.90;;;;;;5031583;28;20191;-73
2021/05/06 12:26:24;;;;;;;5.80;4.53;;;14.70;99.90;;;;;;5032776;28;21320;-73
2021/05/06 12:28:49;;;;;;;5.10;4.60;;;14.60;99.90;;;;;;5003639;28;20238;-73
2021/05/06 12:31:15;;;;;;;5.63;5.00;;;14.40;99.90;;;;;;5032869;28;20195;-73
2021/05/06 12:33:40;;;;;;;5.77;5.00;;;14.10;99.90;;;;;;5033612;28;20175;-74
2021/05/06 12:36:10;;;;;;;5.53;4.13;;;13.90;99.90;;;;;;5039876;28;20277;-73
2021/05/06 12:38:36;;;;;;;5.00;4.17;;;13.60;99.90;;;;;;5033154;28;20179;-74
2021/05/06 12:41:08;;;;;;;6.60;4.93;;;13.70;99.90;;;;;;5019268;28;20562;-72
2021/05/06 12:43:34;;;;;;;6.53;4.90;;;13.70;99.90;;;;;;5013132;28;20179;-72
2021/05/06 12:46:08;;;;;;;7.50;5.07;;;13.70;99.90;;;;;;5007880;28;20198;-72
2021/05/06 12:48:41;;;;;;;5.87;5.10;;;13.60;99.90;;;;;;5053609;28;20259;-72
2021/05/06 12:51:07;;;;;;;7.57;5.20;;;13.50;99.90;;;;;;5036537;28;20194;-72
2021/05/06 12:53:33;;;;;;;5.60;5.03;;;13.30;99.90;;;;;;5053022;28;20166;-73
2021/05/06 12:55:59;;;;;;;5.70;5.17;;;13.20;99.90;;;;;;5053149;28;20170;-72
2021/05/06 12:58:29;;;;;;;6.37;5.27;;;13.60;99.90;;;;;;5042863;28;20667;-72
2021/05/06 13:00:55;;;;;;;7.47;5.13;;;13.50;99.90;;;;;;5037922;28;20269;-72
2021/05/06 13:03:44;;;;;;;6.40;4.93;;;13.50;99.90;;;;;;5033013;28;20609;-72
2021/05/06 13:06:15;;;;;;;6.40;5.10;;;13.30;99.90;;;;;;5033271;28;20248;-73
2021/05/06 13:08:44;;;;;;;6.37;5.30;;;13.40;99.90;;;;;;5032747;28;20198;-72
2021/05/06 13:11:11;;;;;;;5.83;5.10;;;13.80;99.90;;;;;;5033095;28;20190;-72
2021/05/06 13:13:38;;;;;;;5.90;4.93;;;13.80;99.90;;;;;;5032759;28;20195;-72
2021/05/06 13:16:05;;;;;;;6.03;4.90;;;14.10;99.90;;;;;;5016630;28;20183;-74
2021/05/06 13:18:30;;;;;;;6.23;4.93;;;14.00;99.90;;;;;;5033058;28;20182;-73
2021/05/06 13:20:56;;;;;;;5.93;5.33;;;13.70;99.90;;;;;;5034793;28;20214;-72
2021/05/06 13:23:30;;;;;;;6.63;5.47;;;13.70;99.90;;;;;;5033987;28;20552;-73
2021/05/06 13:26:01;;;;;;;7.03;5.10;;;13.50;99.90;;;;;;5034904;28;20224;-73
2021/05/06 13:28:32;;;;;;;5.17;4.53;;;13.40;99.90;;;;;;5016373;28;20178;-73
2021/05/06 13:31:05;;;;;;;6.13;4.97;;;13.70;99.90;;;;;;5046108;28;20685;-72
2021/05/06 13:33:31;;;;;;;6.63;5.10;;;13.90;99.90;;;;;;5040545;28;20172;-73
2021/05/06 13:36:06;;;;;;;5.70;4.60;;;14.00;99.90;;;;;;5048618;28;20183;-73
2021/05/06 13:38:51;;;;;;;6.03;5.30;;;14.20;99.90;;;;;;5033681;28;20182;-73
2021/05/06 13:41:17;;;;;;;5.63;5.13;;;14.30;99.90;;;;;;5043358;28;20248;-74
2021/05/06 13:43:43;;;;;;;5.70;5.10;;;14.30;99.90;;;;;;5020867;28;20657;-72
2021/05/06 13:46:12;;;;;;;8.47;4.90;;;14.70;99.90;;;;;;5015676;28;20202;-72
2021/05/06 13:48:38;;;;;;;5.47;4.83;;;15.00;99.90;;;;;;5033513;28;20183;-72
2021/05/06 13:51:10;;;;;;;6.50;4.97;;;15.20;99.90;;;;;;4999471;28;20186;-72
2021/05/06 13:53:40;;;;;;;4.93;4.47;;;15.00;99.90;;;;;;5032083;28;20175;-73
2021/05/06 13:56:05;;;;;;;5.17;4.37;;;14.80;99.90;;;;;;5032288;28;20217;-73
2021/05/06 13:58:31;;;;;;;5.20;4.70;;;14.80;99.90;;;;;;5015737;28;20222;-73
2021/05/06 14:00:57;;;;;;;9.13;5.00;;;14.90;99.90;;;;;;5032344;28;20213;-73
2021/05/06 14:03:23;;;;;;;5.20;4.27;;;15.00;99.90;;;;;;5015524;28;20233;-73
2021/05/06 14:05:49;;;;;;;5.80;4.60;;;14.90;99.90;;;;;;5015498;28;20187;-74
2021/05/06 14:08:15;;;;;;;5.90;4.37;;;14.80;99.90;;;;;;5032051;28;20166;-73
2021/05/06 14:10:44;;;;;;;7.17;5.07;;;14.60;99.90;;;;;;5033704;28;20210;-71
2021/05/06 14:13:09;;;;;;;6.10;5.23;;;14.50;99.90;;;;;;5015180;28;20175;-72
2021/05/06 14:15:35;;;;;;;4.80;4.30;;;14.30;99.90;;;;;;5031868;28;20631;-73
2021/05/06 14:18:01;;;;;;;5.23;4.70;;;14.20;99.90;;;;;;5005463;28;20240;-72
2021/05/06 14:20:26;;;;;;;7.07;4.70;;;13.80;99.90;;;;;;5051729;28;20194;-73
2021/05/06 14:22:52;;;;;;;6.33;4.93;;;13.80;99.90;;;;;;5051536;28;20261;-73
2021/05/06 14:25:18;;;;;;;6.37;4.83;;;13.80;99.90;;;;;;5051612;28;20239;-75
2021/05/06 14:27:43;;;;;;;6.53;4.73;;;13.70;99.90;;;;;;5043052;28;20202;-74
2021/05/06 14:30:10;;;;;;;4.30;3.87;;;13.70;99.90;;;;;;5031490;28;20194;-73
2021/05/06 14:32:35;;;;;;;4.40;3.20;;;13.50;99.90;;;;;;5031632;28;20572;-72
2021/05/06 14:35:01;;;;;;;5.97;3.40;;;13.30;99.90;;;;;;5031453;28;20208;-73
2021/05/06 14:37:26;;;;;;;3.03;2.50;;;13.00;99.90;;;;;;5031460;28;20183;-73
2021/05/06 14:39:52;;;;;;;4.80;3.00;;;13.00;99.90;;;;;;4995247;28;20591;-73
2021/05/06 14:42:19;;;;;;;4.03;2.97;;;12.90;99.90;;;;;;4995188;28;20560;-74
2021/05/06 14:44:45;;;;;;;3.97;3.47;;;12.90;99.90;;;;;;5011606;28;20190;-76
2021/05/06 14:47:10;;;;;;;4.00;3.57;;;13.10;99.90;;;;;;5011427;28;20297;-74
2021/05/06 14:49:36;;;;;;;3.90;3.60;;;13.30;99.90;;;;;;5011585;28;20254;-74
2021/05/06 14:52:01;;;;;;;4.53;3.70;;;13.30;99.90;;;;;;4994899;28;20191;-73
2021/05/06 14:54:27;;;;;;;4.77;3.33;;;13.50;99.90;;;;;;5012204;28;20175;-72
2021/05/06 14:56:52;;;;;;;4.80;3.00;;;13.70;99.90;;;;;;5023760;28;20232;-70
2021/05/06 14:59:18;;;;;;;4.13;3.10;;;13.50;99.90;;;;;;5014584;28;20262;-70
2021/05/06 15:01:43;;;;;;;3.07;2.67;;;13.40;99.90;;;;;;5030828;28;20297;-70
2021/05/06 15:04:09;;;;;;;3.47;3.10;;;13.30;99.90;;;;;;5032085;28;20183;-70
2021/05/06 15:06:35;;;;;;;4.37;3.30;;;13.40;99.90;;;;;;5030835;28;20602;-70
2021/05/06 15:09:04;;;;;;;3.13;2.60;;;13.40;99.90;;;;;;5032165;28;20182;-70
2021/05/06 15:11:30;;;;;;;3.53;2.73;;;13.50;99.90;;;;;;5030874;28;20232;-70
2021/05/06 15:13:55;;;;;;;3.50;2.77;;;13.70;99.90;;;;;;5030326;28;20210;-70
2021/05/06 15:16:21;;;;;;;4.10;3.13;;;13.60;98.40;;;;;;5013991;28;20186;-70
2021/05/06 15:18:46;;;;;;;4.17;3.20;;;13.40;98.60;;;;;;5031569;28;20204;-75
2021/05/06 15:21:12;;;;;;;3.90;3.10;;;13.30;98.40;;;;;;5030712;28;20301;-73
2021/05/06 15:23:37;;;;;;;3.53;3.07;;;13.50;99.90;;;;;;5030475;28;20210;-73
2021/05/06 15:26:03;;;;;;;3.30;3.00;;;13.40;99.90;;;;;;5031949;28;20181;-72
2021/05/06 15:28:29;;;;;;;4.10;3.40;;;13.40;99.90;;;;;;5031095;28;20198;-74
2021/05/06 15:30:56;;;;;;;3.50;3.20;;;13.50;99.90;;;;;;5030593;28;20694;-75
2021/05/06 15:33:21;;;;;;;4.37;3.43;;;13.60;99.90;;;;;;5030418;28;20692;-73
2021/05/06 15:35:47;;;;;;;3.80;3.30;;;13.40;99.90;;;;;;5014193;28;20210;-73
2021/05/06 15:38:12;;;;;;;3.60;3.30;;;13.40;99.90;;;;;;5030647;28;20174;-72
2021/05/06 15:40:39;;;;;;;4.80;3.47;;;13.40;99.90;;;;;;5030423;28;20201;-73
2021/05/06 15:43:07;;;;;;;3.93;3.60;;;13.50;99.90;;;;;;5030519;28;20167;-73
2021/05/06 15:45:34;;;;;;;4.50;3.97;;;13.70;99.90;;;;;;5030716;28;20229;-72
2021/05/06 15:47:59;;;;;;;4.23;3.67;;;13.70;99.90;;;;;;5014104;28;20278;-73
2021/05/06 15:50:25;;;;;;;4.70;3.43;;;13.60;99.90;;;;;;5031764;28;20654;-72
2021/05/06 15:52:50;;;;;;;4.30;3.50;;;13.60;99.90;;;;;;5029492;28;20171;-72
2021/05/06 15:55:16;;;;;;;5.10;3.30;;;13.60;99.90;;;;;;5031447;28;20190;-73
2021/05/06 15:57:43;;;;;;;5.87;3.40;;;13.30;99.90;;;;;;5030283;28;20266;-74
2021/05/06 16:00:10;;;;;;;4.10;3.40;;;13.30;99.90;;;;;;5040612;22;20286;-72
2021/05/06 16:02:36;;;;;;;4.00;3.60;;;13.30;99.90;;;;;;5028820;28;20195;-74
2021/05/06 16:05:04;;;;;;;3.50;3.13;;;13.20;99.90;;;;;;5031247;28;20530;-73
2021/05/06 16:07:30;;;;;;;4.60;3.00;;;13.40;99.90;;;;;;5034290;28;20199;-74
2021/05/06 16:09:56;;;;;;;3.63;3.33;;;13.40;99.90;;;;;;5035356;28;20178;-73
2021/05/06 16:12:21;;;;;;;3.30;3.00;;;13.30;99.90;;;;;;5035396;28;20281;-73
2021/05/06 16:14:47;;;;;;;3.80;3.10;;;13.30;99.90;;;;;;5001242;28;20182;-74
2021/05/06 16:17:12;;;;;;;4.73;3.23;;;13.30;99.90;;;;;;5035368;28;20518;-73